• Join FlightAware (Why Join?)
  • Login
  • US Flag 
09:44PM EDT


 

Airport Tracker/Info


-or-


 

Live Flight TrackerFlight Track Log ✈ DLH457 ✈ 03-Jul-2013 ✈ KLAX - EDDF / FRA

Flight Track Log - Related Links

Times and Time Zones

All times are in EDT time to prevent confusion due to time zone crossing. See the DLH457 flight status page for this flight to view local times or setup timezone preferences in your user account.

Time Position Orientation Groundspeed Altitude Reporting Facility
EDT Latitude Longitude Course Direction KTS MPH feet Rate Location/Type
06:27PM 33.9460 -118.4420 262° West 177 204 700  Level FlightAware
06:28PM 33.9450 -118.4530 264° West 178 205 1,100 1,560 Climbing FlightAware
06:28PM 33.9420 -118.4860 264° West 200 230 1,800 960 Climbing FlightAware
06:29PM 33.9420 -118.5180 270° West 233 268 2,000 900 Climbing FlightAware
06:29PM 33.9380 -118.5630 264° West 259 298 2,700 1,620 Climbing FlightAware
06:30PM 33.9340 -118.6250 266° West 281 323 4,000 1,860 Climbing FlightAware
06:30PM 33.9390 -118.6420 290° West 285 328 4,400 2,100 Climbing FlightAware
06:31PM 33.9690 -118.6740 319° Northwest 295 339 5,500 2,220 Climbing FlightAware
06:31PM 33.9990 -118.6980 326° Northwest 300 345 6,500 2,220 Climbing FlightAware
06:31PM 34.0370 -118.7060 350° North 311 358 7,500 2,040 Climbing FlightAware
06:32PM 34.0570 -118.6980 18° North 315 362 8,000 1,560 Climbing FlightAware
06:32PM 34.0720 -118.6860 34° Northeast 317 365 8,200 300 Climbing FlightAware
06:32PM 34.0980 -118.6650 34° Northeast 317 365 8,200 1,380 Level FlightAware
06:33PM 34.1620 -118.6310 24° Northeast 329 379 9,800 1,980 Climbing FlightAware
06:34PM 34.2090 -118.6140 17° North 345 397 10,700 1,500 Climbing FlightAware
06:34PM 34.2370 -118.6130 North 360 414 11,000 1,680 Climbing FlightAware
06:34PM 34.2840 -118.6150 358° North 364 419 12,000 2,040 Climbing FlightAware
06:35PM 34.3460 -118.6340 346° North 375 432 13,300 1,920 Climbing FlightAware
06:36PM 34.4140 -118.6670 338° Northwest 386 444 14,600 1,980 Climbing FlightAware
06:36PM 34.4810 -118.7010 337° Northwest 385 443 16,100 1,920 Climbing FlightAware
06:37PM 34.5630 -118.7420 338° Northwest 394 453 17,500 1,620 Climbing FlightAware
06:38PM 34.6260 -118.7730 338° Northwest 405 466 18,400 1,560 Climbing FlightAware
06:38PM 34.6890 -118.8040 338° Northwest 413 475 19,400 1,140 Climbing FlightAware
06:39PM 34.7700 -118.8490 335° Northwest 414 476 20,000 360 Climbing FlightAware
06:40PM 34.8450 -118.9180 323° Northwest 414 476 20,000 120 Level FlightAware
06:40PM 34.8960 -118.9670 322° Northwest 408 470 20,200 840 Climbing FlightAware
06:42PM 34.9990 -119.0740 320° Northwest 424 488 21,400 1,080 Climbing FlightAware
06:42PM 35.0630 -119.1400 320° Northwest 436 502 22,200 1,140 Climbing FlightAware
06:43PM 35.1230 -119.2060 318° Northwest 445 512 23,000 1,020 Climbing FlightAware
06:43PM 35.1470 -119.2210 333° Northwest 451 519 23,100 600 Climbing FlightAware
06:43PM 35.1820 -119.2320 346° North 456 525 23,300 780 Climbing FlightAware
06:44PM 35.2720 -119.2400 356° North 473 544 23,900 1,080 Climbing FlightAware
06:45PM 35.3650 -119.2480 356° North 479 551 24,900 1,440 Climbing FlightAware
06:46PM 35.4530 -119.2560 356° North 479 551 25,900 1,320 Climbing FlightAware
06:46PM 35.5430 -119.2650 355° North 484 557 26,700 1,260 Climbing FlightAware
06:47PM 35.6360 -119.2730 356° North 485 558 27,700 1,020 Climbing FlightAware
06:48PM 35.7280 -119.2820 355° North 498 573 28,100 840 Climbing FlightAware
06:48PM 35.7820 -119.2860 357° North 498 573 28,600 1,740 Climbing FlightAware
06:48PM 35.8500 -119.2710 10° North 482 555 29,700 1,140 Climbing FlightAware
06:49PM 35.9420 -119.2310 19° North 491 565 30,000 180 Climbing FlightAware
06:50PM 36.0330 -119.1920 19° North 493 567 30,000  Level FlightAware
06:51PM 36.1190 -119.1540 20° North 495 570 30,000  Level FlightAware
06:51PM 36.2100 -119.1340 10° North 508 585 30,000  Level FlightAware
06:52PM 36.2830 -119.1320 North 510 587 30,000 60 Level FlightAware
06:52PM 36.3490 -119.1300 North 513 590 30,100 240 Climbing FlightAware
06:53PM 36.3980 -119.1330 357° North 519 597 30,200 720 Climbing FlightAware
06:53PM 36.5020 -119.1470 354° North 522 601 30,900 960 Climbing FlightAware
06:54PM 36.5600 -119.1570 352° North 524 603 31,300 900 Climbing FlightAware
06:54PM 36.6740 -119.1750 353° North 525 604 32,000 540 Climbing FlightAware
06:55PM 36.7380 -119.1850 353° North 526 605 32,000  Level FlightAware
06:56PM 36.8350 -119.2010 352° North 526 605 32,000  Level FlightAware
06:56PM 36.9260 -119.2160 352° North 526 605 32,000  Level FlightAware
06:57PM 37.0370 -119.2340 353° North 527 606 32,000  Level FlightAware
06:58PM 37.1380 -119.2470 354° North 525 604 32,000  Level FlightAware
06:58PM 37.2020 -119.2360 North 520 598 32,000  Level FlightAware
06:59PM 37.2860 -119.1960 21° North 516 594 32,000  Level FlightAware
07:00PM 37.3970 -119.1350 24° Northeast 508 585 32,000  Level FlightAware
07:00PM 37.4780 -119.0780 29° Northeast 504 580 32,000  Level FlightAware
07:01PM 37.5500 -119.0230 31° Northeast 504 580 32,000  Level FlightAware
07:02PM 37.6310 -118.9620 31° Northeast 503 579 32,000  Level FlightAware
07:02PM 37.7180 -118.8960 31° Northeast 504 580 32,000  Level FlightAware
07:03PM 37.7900 -118.8410 31° Northeast 504 580 32,000  Level FlightAware
07:04PM 37.8650 -118.7840 31° Northeast 505 581 32,000  Level FlightAware
07:04PM 37.9270 -118.7360 31° Northeast 505 581 32,000  Level FlightAware
07:05PM 38.0310 -118.6570 31° Northeast 505 581 32,000  Level FlightAware
07:06PM 38.0930 -118.6100 31° Northeast 505 581 32,000  Level FlightAware
07:07PM 38.1780 -118.5450 31° Northeast 505 581 32,000  Level FlightAware
07:07PM 38.2390 -118.4980 31° Northeast 505 581 32,000  Level FlightAware
07:08PM 38.4040 -118.5490 346° North 523 602 32,000  Level FlightAware
07:08PM 38.4870 -118.5370 North 522 601 32,000  Level FlightAware
07:09PM 38.5850 -118.5230 North 527 606 32,000  Level FlightAware
07:09PM 38.6800 -118.5090 North 526 605 32,000  Level FlightAware
07:10PM 38.7860 -118.4930 North 527 606 32,000  Level FlightAware
07:11PM 38.9280 -118.4720 North 527 606 32,000  Level FlightAware
07:12PM 39.0250 -118.4580 North 524 603 32,000  Level FlightAware
07:13PM 39.1270 -118.4430 North 522 601 32,000  Level FlightAware
07:13PM 39.2180 -118.4290 North 521 600 32,000  Level FlightAware
07:14PM 39.3080 -118.4160 North 520 598 32,000  Level FlightAware
07:15PM 39.4180 -118.4000 North 520 598 32,000  Level FlightAware
07:15PM 39.4930 -118.3890 North 520 598 32,000  Level FlightAware
07:16PM 39.5980 -118.3730 North 521 600 32,000  Level FlightAware
07:16PM 39.6960 -118.3580 North 523 602 32,000  Level FlightAware
07:17PM 39.7970 -118.3430 North 524 603 32,000  Level FlightAware
07:18PM 39.8980 -118.3280 North 524 603 32,000  Level FlightAware
07:19PM 40.0040 -118.3120 North 525 604 32,000  Level FlightAware
07:19PM 40.1010 -118.2970 North 524 603 32,000  Level FlightAware
07:20PM 40.1880 -118.2840 North 524 603 32,000  Level FlightAware
07:20PM 40.2680 -118.2720 North 525 604 32,000  Level FlightAware
07:21PM 40.3440 -118.2610 North 525 604 32,000  Level FlightAware
07:22PM 40.4400 -118.2480 North 525 604 32,000  Level FlightAware
07:22PM 40.5160 -118.2370 North 525 604 32,000  Level FlightAware
07:23PM 40.5920 -118.2270 North 525 604 32,000  Level FlightAware
07:24PM 40.6890 -118.2130 North 525 604 32,000  Level FlightAware
07:24PM 40.7650 -118.2030 North 525 604 32,000  Level FlightAware
07:25PM 40.8630 -118.1890 North 525 604 32,000  Level FlightAware
07:26PM 40.9370 -118.1790 North 525 604 32,000  Level FlightAware
07:27PM 41.0360 -118.1650 North 525 604 32,000  Level FlightAware
07:27PM 41.1090 -118.1550 North 525 604 32,000  Level FlightAware
07:28PM 41.1830 -118.1450 North 525 604 32,000  Level FlightAware
07:28PM 41.2590 -118.1340 North 525 604 32,000  Level FlightAware
07:29PM 41.3330 -118.1240 North 525 604 32,000  Level FlightAware
07:30PM 41.4070 -118.1130 North 525 604 32,000  Level FlightAware
07:30PM 41.6458 -118.0592 North 517 595 32,000  Level Salt Lake Center
07:31PM 41.8050 -118.0339 North 515 593 32,000  Level Salt Lake Center
07:32PM 41.9417 -118.0114 North 514 592 32,000 240 Level Salt Lake Center
07:33PM 42.0917 -117.9350 21° North 525 604 32,600 480 Climbing Salt Lake Center
07:34PM 42.2233 -117.8797 17° North 518 596 33,000 180 Climbing Salt Lake Center
07:35PM 42.3708 -117.8236 16° North 512 589 33,000  Level Salt Lake Center
07:36PM 42.5011 -117.7669 18° North 515 593 33,000  Level Salt Lake Center
07:37PM 42.6461 -117.6714 26° Northeast 518 596 33,000  Level Salt Lake Center
07:38PM 42.7639 -117.5753 31° Northeast 515 593 33,000  Level Salt Lake Center
07:39PM 42.9033 -117.4672 30° Northeast 517 595 33,000  Level Salt Lake Center
07:40PM 43.0228 -117.3747 30° Northeast 515 593 33,000  Level Salt Lake Center
07:42PM 43.1428 -117.2822 29° Northeast 515 593 33,000  Level Salt Lake Center
07:43PM 43.2828 -117.1708 30° Northeast 520 598 33,000  Level Salt Lake Center
07:44PM 43.4025 -117.0758 30° Northeast 519 597 33,000  Level Salt Lake Center
07:45PM 43.5436 -116.9639 30° Northeast 523 602 33,000  Level Salt Lake Center
07:46PM 43.6644 -116.8689 30° Northeast 522 601 33,000  Level Salt Lake Center
07:47PM 43.8042 -116.7564 30° Northeast 520 598 33,000  Level Salt Lake Center
07:48PM 43.9236 -116.6597 30° Northeast 518 596 33,000  Level Salt Lake Center
07:49PM 44.0642 -116.5467 30° Northeast 523 602 33,000  Level Salt Lake Center
07:50PM 44.1825 -116.4486 31° Northeast 517 595 33,000  Level Salt Lake Center
07:51PM 44.3003 -116.3517 30° Northeast 514 592 33,000  Level Salt Lake Center
07:52PM 44.4436 -116.2378 30° Northeast 518 596 33,000  Level Salt Lake Center
07:53PM 44.5722 -116.1300 31° Northeast 535 616 33,000  Level Salt Lake Center
07:54PM 44.6903 -116.0289 31° Northeast 522 601 33,000  Level Salt Lake Center
07:55PM 44.8286 -115.9125 31° Northeast 518 596 33,000  Level Salt Lake Center
07:56PM 44.9475 -115.8128 31° Northeast 518 596 33,000  Level Salt Lake Center
07:57PM 45.1061 -115.6767 31° Northeast 522 601 33,000  Level Salt Lake Center
07:58PM 45.2242 -115.5764 31° Northeast 519 597 33,000  Level Salt Lake Center
07:59PM 45.3639 -115.4572 31° Northeast 523 602 33,000  Level Salt Lake Center
08:00PM 45.4433 -115.3889 31° Northeast 522 601 33,000  Level Seattle Center
08:01PM 45.5622 -115.2853 31° Northeast 522 601 33,000  Level Seattle Center
08:02PM 45.7011 -115.1644 31° Northeast 523 602 33,000  Level Seattle Center
08:03PM 45.8197 -115.0617 31° Northeast 521 600 33,000 -60 Level Seattle Center
08:04PM 45.9392 -114.9575 31° Northeast 520 598 32,900  Descending Seattle Center
08:05PM 46.0608 -114.8478 32° Northeast 519 597 33,000  Climbing Seattle Center
08:06PM 46.1919 -114.7333 31° Northeast 520 598 33,000 -60 Level Seattle Center
08:07PM 46.3150 -114.6222 32° Northeast 522 601 32,900  Descending Seattle Center
08:08PM 46.4383 -114.5136 31° Northeast 522 601 33,000  Climbing Seattle Center
08:09PM 46.5606 -114.4003 33° Northeast 522 601 33,000  Level Seattle Center
08:10PM 46.6844 -114.2892 32° Northeast 524 603 33,000 -60 Level Seattle Center
08:11PM 46.8339 -114.1533 32° Northeast 529 609 32,900 -60 Descending Seattle Center
08:12PM 46.9561 -114.0403 32° Northeast 525 604 32,900 60 Level Seattle Center
08:13PM 47.0089 -113.9950 30° Northeast 535 616 33,000 60 Climbing Salt Lake Center
08:14PM 47.1372 -113.9031 26° Northeast 516 594 33,000 -60 Level Salt Lake Center
08:15PM 47.2650 -113.8100 26° Northeast 516 594 32,900  Descending Salt Lake Center
08:21PM 48.0400 -113.1120 26° Northeast 527 606 33,000  Climbing FlightAware
08:22PM 48.1200 -113.0100 40° Northeast 525 604 33,000  Level FlightAware
08:23PM 48.2670 -112.8220 40° Northeast 516 594 33,000  Level FlightAware
08:23PM 48.3180 -112.7550 41° Northeast 517 595 33,000  Level FlightAware
08:24PM 48.4020 -112.6480 40° Northeast 512 589 33,000  Level FlightAware
08:25PM 48.4830 -112.5420 41° Northeast 513 590 33,000  Level FlightAware
08:26PM 48.5460 -112.4600 41° Northeast 513 590 33,000  Level FlightAware
08:26PM 48.6010 -112.3880 41° Northeast 513 590 33,000  Level FlightAware
08:27PM 48.6740 -112.2930 41° Northeast 515 593 33,000  Level FlightAware
08:27PM 48.7610 -112.1780 41° Northeast 515 593 33,000  Level FlightAware
08:28PM 48.8330 -112.0830 41° Northeast 517 595 33,000  Level FlightAware
08:29PM 48.9250 -111.9610 41° Northeast 517 595 33,000  Level FlightAware
08:30PM 48.9980 -111.8630 41° Northeast 518 596 33,000  Level FlightAware
08:30PM 49.0690 -111.7670 42° Northeast 519 597 33,000  Level FlightAware
08:31PM 49.1360 -111.6780 41° Northeast 520 598 33,000  Level FlightAware
08:31PM 49.1920 -111.6020 42° Northeast 520 598 33,000  Level FlightAware
08:32PM 49.2660 -111.5020 41° Northeast 521 600 33,000  Level FlightAware
08:33PM 49.3500 -111.3880 41° Northeast 520 598 33,000  Level FlightAware
08:34PM 49.4440 -111.2590 42° Northeast 519 597 33,000  Level FlightAware
08:34PM 49.5110 -111.1670 42° Northeast 519 597 33,000  Level FlightAware
08:35PM 49.5890 -111.0590 42° Northeast 519 597 33,000  Level FlightAware
08:36PM 49.6760 -110.9390 42° Northeast 525 604 33,000  Level FlightAware
08:37PM 49.7550 -110.8280 42° Northeast 526 605 33,000  Level FlightAware
08:37PM 49.8410 -110.7080 42° Northeast 527 606 33,000  Level FlightAware
08:38PM 49.9140 -110.6050 42° Northeast 527 606 33,000  Level FlightAware
08:39PM 49.9830 -110.5070 42° Northeast 528 608 33,000  Level FlightAware
08:40PM 50.0740 -110.3800 42° Northeast 526 605 33,000  Level FlightAware
08:40PM 50.1290 -110.3020 42° Northeast 526 605 33,000  Level FlightAware
08:41PM 50.2190 -110.1720 43° Northeast 525 604 33,000  Level FlightAware
08:42PM 50.3110 -110.0390 43° Northeast 526 605 33,000  Level FlightAware
08:43PM 50.4320 -109.8650 42° Northeast 527 606 33,000  Level FlightAware
08:44PM 50.4890 -109.7840 42° Northeast 527 606 33,000  Level FlightAware
08:44PM 50.5260 -109.7320 42° Northeast 527 606 33,000  Level FlightAware
08:45PM 50.6580 -109.5340 44° Northeast 527 606 33,000  Level FlightAware
08:46PM 50.7180 -109.4450 43° Northeast 527 606 33,000  Level FlightAware
08:46PM 50.7540 -109.3910 43° Northeast 527 606 33,000  Level FlightAware
08:47PM 50.8470 -109.2550 43° Northeast 527 606 33,000  Level FlightAware
08:48PM 50.9010 -109.1740 43° Northeast 527 606 33,000  Level FlightAware
08:48PM 50.9560 -109.0930 43° Northeast 527 606 33,000  Level FlightAware
08:49PM 51.0120 -109.0100 43° Northeast 527 606 33,000  Level FlightAware
08:49PM 51.0680 -108.9270 43° Northeast 527 606 33,000  Level FlightAware
08:50PM 51.1220 -108.8460 43° Northeast 527 606 33,000  Level FlightAware
08:51PM 51.1770 -108.7650 43° Northeast 527 606 33,000  Level FlightAware
08:51PM 51.2500 -108.6570 43° Northeast 527 606 33,000  Level FlightAware
08:52PM 51.3040 -108.5750 43° Northeast 527 606 33,000  Level FlightAware
08:53PM 51.3600 -108.4920 43° Northeast 527 606 33,000  Level FlightAware
08:53PM 51.4160 -108.4080 43° Northeast 527 606 33,000  Level FlightAware
08:54PM 51.4860 -108.3030 43° Northeast 527 606 33,000  Level FlightAware
08:55PM 51.5420 -108.2190 43° Northeast 527 606 33,000  Level FlightAware
08:55PM 51.8167 -108.1000 43° Northeast 520 598 33,000  Level Winnipeg Center
08:56PM 51.9333 -107.9667 35° Northeast 520 598 33,000  Level Winnipeg Center
08:57PM 52.0000 -107.8500 47° Northeast 520 598 33,000  Level Edmonton Center
08:58PM 52.1000 -107.6667 48° Northeast 520 598 33,000  Level Edmonton Center
08:59PM 52.2000 -107.5000 46° Northeast 520 598 33,000  Level Edmonton Center
09:00PM 52.3000 -107.3167 48° Northeast 530 610 33,000  Level Edmonton Center
09:01PM 52.4000 -107.1167 51° Northeast 530 610 33,000  Level Edmonton Center
09:02PM 52.5000 -106.9667 42° Northeast 530 610 33,000  Level Edmonton Center
09:03PM 52.6000 -106.7667 50° Northeast 530 610 33,000  Level Edmonton Center
09:04PM 52.7167 -106.5833 44° Northeast 530 610 33,000  Level Edmonton Center
09:05PM 52.8167 -106.4167 45° Northeast 530 610 33,000  Level Edmonton Center
09:06PM 52.9167 -106.2333 48° Northeast 530 610 33,000  Level Edmonton Center
09:07PM 53.0167 -106.0667 45° Northeast 530 610 33,000  Level Edmonton Center
09:08PM 53.1000 -105.8667 55° Northeast 530 610 33,000  Level Edmonton Center
09:09PM 53.2167 -105.6667 46° Northeast 530 610 33,000  Level Edmonton Center
09:10PM 53.3167 -105.5000 45° Northeast 520 598 33,000  Level Edmonton Center
09:11PM 53.4167 -105.3000 50° Northeast 520 598 33,000  Level Edmonton Center
09:12PM 53.5000 -105.1333 50° Northeast 530 610 33,000  Level Edmonton Center
09:13PM 53.6000 -104.9667 45° Northeast 530 610 33,000  Level Edmonton Center
09:14PM 53.7000 -104.7667 50° Northeast 520 598 33,000  Level Edmonton Center
09:15PM 53.8000 -104.5667 50° Northeast 530 610 33,000  Level Edmonton Center
09:16PM 53.9000 -104.3833 47° Northeast 520 598 33,000  Level Edmonton Center
09:17PM 54.0000 -104.1833 50° Northeast 530 610 33,000  Level Edmonton Center
09:18PM 54.0833 -104.0167 50° Northeast 530 610 33,000  Level Edmonton Center
09:19PM 54.2000 -103.8000 47° Northeast 530 610 33,000  Level Edmonton Center
09:20PM 54.2833 -103.6000 54° Northeast 530 610 33,000  Level Edmonton Center
09:21PM 54.3833 -103.4167 47° Northeast 530 610 33,000  Level Edmonton Center
09:22PM 54.4833 -103.2167 49° Northeast 530 610 33,000  Level Edmonton Center
09:23PM 54.5833 -103.0333 47° Northeast 530 610 33,000  Level Edmonton Center
09:24PM 54.6833 -102.8167 51° Northeast 530 610 33,000  Level Edmonton Center
09:25PM 54.7833 -102.6167 49° Northeast 540 621 33,000  Level Edmonton Center
09:26PM 54.8833 -102.4000 51° Northeast 540 621 33,000  Level Edmonton Center
09:27PM 54.9667 -102.2167 52° Northeast 550 633 33,000  Level Edmonton Center
09:28PM 55.0667 -102.0000 51° Northeast 550 633 33,000  Level Edmonton Center
09:29PM 55.1833 -101.7833 47° Northeast 550 633 33,000  Level Edmonton Center
09:30PM 55.2667 -101.5667 56° Northeast 550 633 33,000  Level Edmonton Center
09:31PM 55.3500 -101.3500 56° Northeast 560 644 33,000  Level Edmonton Center
09:32PM 55.4667 -101.1333 46° Northeast 550 633 33,000  Level Edmonton Center
09:33PM 55.5667 -100.9167 51° Northeast 560 644 33,000  Level Edmonton Center
09:34PM 55.6500 -100.7000 56° Northeast 550 633 33,000  Level Edmonton Center
09:35PM 55.7500 -100.5000 48° Northeast 550 633 33,000  Level Edmonton Center
09:36PM 55.8667 -100.2500 50° Northeast 560 644 33,000  Level Edmonton Center
09:37PM 55.9333 -100.0500 59° Northeast 560 644 33,000  Level Edmonton Center
09:38PM 56.0500 -99.8000 50° Northeast 560 644 33,000  Level Edmonton Center
09:39PM 56.1167 -99.5667 63° Northeast 560 644 33,000  Level Edmonton Center
09:40PM 56.2000 -99.3167 59° Northeast 560 644 33,000  Level Edmonton Center
09:41PM 56.2833 -99.0833 57° Northeast 560 644 33,000  Level Edmonton Center
09:42PM 56.3667 -98.8333 59° Northeast 560 644 33,000  Level Edmonton Center
09:43PM 56.4500 -98.6000 57° Northeast 560 644 33,000  Level Edmonton Center
09:44PM 56.5167 -98.3500 64° Northeast 560 644 33,000  Level Edmonton Center
09:45PM 56.6000 -98.0833 60° Northeast 560 644 33,000  Level Edmonton Center
09:46PM 56.6833 -97.8500 57° Northeast 550 633 33,000  Level Edmonton Center
09:47PM 56.7500 -97.6167 62° Northeast 550 633 33,000  Level Edmonton Center
09:48PM 56.8167 -97.3500 65° Northeast 540 621 33,000  Level Edmonton Center
09:49PM 56.9000 -97.1167 57° Northeast 540 621 33,000  Level Edmonton Center
09:50PM 56.9833 -96.8833 57° Northeast 540 621 33,000  Level Edmonton Center
09:51PM 57.0500 -96.6167 65° Northeast 550 633 33,000  Level Edmonton Center
09:52PM 57.1333 -96.3833 57° Northeast 550 633 33,000  Level Edmonton Center
09:53PM 57.2000 -96.1167 65° Northeast 550 633 33,000  Level Edmonton Center
09:54PM 57.2500 -95.8500 71° East 540 621 33,000  Level Edmonton Center
09:55PM 57.3000 -95.5833 71° East 540 621 33,000  Level Edmonton Center
09:56PM 57.3667 -95.3167 65° Northeast 540 621 33,000  Level Edmonton Center
09:57PM 57.4167 -95.0667 70° East 540 621 33,000  Level Edmonton Center
09:58PM 57.4833 -94.8333 62° Northeast 540 621 33,000  Level Edmonton Center
09:59PM 57.6000 -94.5333 54° Northeast 550 633 33,000  Level Winnipeg Center
10:00PM 57.6333 -94.3000 75° East 540 621 33,000  Level Edmonton Center
10:01PM 57.7000 -94.0667 62° Northeast 540 621 33,000  Level Edmonton Center
10:02PM 57.7667 -93.8167 63° Northeast 540 621 33,000  Level Edmonton Center
10:03PM 57.8333 -93.5333 66° East 540 621 33,000  Level Edmonton Center
10:04PM 57.9000 -93.2833 63° Northeast 540 621 33,000  Level Edmonton Center
10:05PM 57.9833 -93.0000 61° Northeast 550 633 33,000  Level Edmonton Center
10:06PM 58.0500 -92.7500 63° Northeast 550 633 33,000  Level Edmonton Center
10:07PM 58.1167 -92.4667 66° East 550 633 33,000  Level Edmonton Center
10:08PM 58.1833 -92.2167 63° Northeast 550 633 33,000  Level Edmonton Center
10:09PM 58.2333 -91.9667 69° East 550 633 33,000  Level Edmonton Center
10:10PM 58.3167 -91.6833 61° Northeast 550 633 33,000  Level Edmonton Center
10:11PM 58.3667 -91.4167 70° East 550 633 33,000  Level Edmonton Center
10:12PM 58.4500 -91.1667 57° Northeast 550 633 33,000  Level Edmonton Center
10:13PM 58.5000 -90.8833 71° East 540 621 33,000  Level Edmonton Center
10:14PM 58.5500 -90.6167 70° East 540 621 33,000  Level Edmonton Center
10:15PM 58.6333 -90.3500 59° Northeast 550 633 33,000  Level Edmonton Center
10:16PM 58.6833 -90.0667 71° East 550 633 33,000  Level Edmonton Center
10:17PM 58.7333 -89.8167 69° East 540 621 33,000  Level Edmonton Center
10:18PM 58.8167 -89.5500 59° Northeast 550 633 33,000  Level Edmonton Center
10:19PM 58.8667 -89.2500 72° East 550 633 33,000  Level Edmonton Center
10:20PM 58.9333 -88.9833 64° Northeast 550 633 33,000  Level Edmonton Center
10:21PM 58.9833 -88.7167 70° East 550 633 33,000  Level Edmonton Center
10:22PM 59.0500 -88.4167 67° East 550 633 33,000  Level Edmonton Center
10:23PM 59.1000 -88.1500 70° East 550 633 33,000  Level Edmonton Center
10:24PM 59.1500 -87.8500 72° East 560 644 33,000  Level Edmonton Center
10:25PM 59.2167 -87.5833 64° Northeast 550 633 33,000  Level Edmonton Center
10:26PM 59.2667 -87.3167 70° East 560 644 33,000  Level Edmonton Center
10:27PM 59.3333 -87.0167 66° East 560 644 33,000  Level Edmonton Center
10:28PM 59.3833 -86.7500 70° East 560 644 33,000  Level Edmonton Center
10:29PM 59.4333 -86.4333 73° East 560 644 33,000  Level Edmonton Center
10:30PM 59.5000 -86.1167 67° East 560 644 33,000  Level Edmonton Center
10:31PM 59.5500 -85.8500 70° East 560 644 33,000  Level Edmonton Center
10:32PM 59.6000 -85.5333 73° East 560 644 33,000  Level Edmonton Center
10:33PM 59.6500 -85.2667 70° East 570 656 33,000  Level Edmonton Center
10:35PM 59.7283 -84.8405 70° East  Level FlightAware Approximate
10:36PM 59.7833 -84.4833 70° East 570 656 33,000  Level Edmonton Center
10:37PM 59.8500 -84.1667 67° East 580 667 33,000  Level Edmonton Center
10:38PM 59.8833 -83.8500 78° East 580 667 33,000  Level Edmonton Center
10:39PM 59.9333 -83.5667 70° East 580 667 33,000  Level Edmonton Center
10:40PM 60.0000 -83.2500 67° East 580 667 33,000  Level Edmonton Center
10:41PM 60.0500 -82.9333 72° East 580 667 33,000  Level Edmonton Center
10:42PM 60.0833 -82.6500 77° East 580 667 33,000  Level Edmonton Center
10:43PM 60.1333 -82.3333 72° East 580 667 33,000  Level Edmonton Center
10:44PM 60.1833 -82.0000 73° East 580 667 33,000  Level Edmonton Center
10:45PM 60.2167 -81.7333 76° East 580 667 33,000  Level Edmonton Center
10:46PM 60.2667 -81.4000 73° East 570 656 33,000  Level Edmonton Center
10:47PM 60.3167 -81.0833 72° East 580 667 33,000  Level Edmonton Center
10:48PM 60.3500 -80.8000 77° East 580 667 33,000  Level Edmonton Center
10:49PM 60.4000 -80.4333 74° East 580 667 33,000  Level Edmonton Center
10:50PM 60.4500 -80.1333 71° East 580 667 33,000  Level Edmonton Center
10:51PM 60.4667 -79.8000 84° East 580 667 33,000  Level Edmonton Center
10:52PM 60.4667 -79.5000 90° East 590 679 33,000  Level Edmonton Center
10:53PM 60.4333 -79.1667 101° East 590 679 33,000  Level Edmonton Center
10:54PM 60.4167 -78.8333 96° East 590 679 33,000  Level Edmonton Center
10:55PM 60.3833 -78.5000 101° East 580 667 33,000  Level Edmonton Center
10:56PM 60.3667 -78.1833 96° East 580 667 33,000  Level Edmonton Center
10:57PM 60.3333 -77.8833 103° East 570 656 33,000  Level Edmonton Center
10:58PM 60.3167 -77.5333 95° East 570 656 33,000  Level Edmonton Center
10:59PM 60.2833 -77.2167 102° East 570 656 33,000  Level Edmonton Center
11:00PM 60.2667 -76.9000 96° East 570 656 33,000  Level Edmonton Center
11:01PM 60.2333 -76.6000 102° East 570 656 33,000  Level Edmonton Center
11:02PM 60.2000 -76.2667 101° East 570 656 33,000  Level Edmonton Center
11:03PM 60.1833 -75.9500 96° East 580 667 33,000  Level Edmonton Center
11:04PM 60.1500 -75.6500 102° East 580 667 33,000  Level Edmonton Center
11:05PM 60.1167 -75.3000 101° East 580 667 33,000  Level Edmonton Center
11:06PM 60.0833 -75.0000 102° East 580 667 33,000  Level Edmonton Center
11:07PM 60.0667 -74.6833 96° East 580 667 33,000  Level Edmonton Center
11:08PM 60.0167 -74.3500 107° East 580 667 33,000  Level Edmonton Center
11:08PM 60.0500 -74.4000 323° Northwest 590 679 33,000  Level Gander Center
11:09PM 60.0333 -74.1500 97° East 580 667 33,000  Level Montreal Center
11:10PM 60.0000 -73.8500 102° East 580 667 33,000  Level Montreal Center
11:11PM 59.9667 -73.5167 101° East 580 667 33,000  Level Montreal Center
11:12PM 59.8833 -73.1333 113° Southeast 580 667 33,000  Level Edmonton Center
11:13PM 59.9000 -72.8833 82° East 580 667 33,000  Level Montreal Center
11:14PM 59.8500 -72.5833 108° East 580 667 33,000  Level Montreal Center
11:15PM 59.8167 -72.2500 101° East 580 667 33,000  Level Montreal Center
11:16PM 59.7667 -71.9500 108° East 580 667 33,000  Level Montreal Center
11:17PM 59.7500 -71.6333 96° East 580 667 33,000  Level Montreal Center
11:18PM 59.7000 -71.3000 106° East 580 667 33,000  Level Montreal Center
11:19PM 59.6500 -71.0333 110° East 580 667 33,000  Level Montreal Center
11:20PM 59.6167 -70.6833 101° East 580 667 33,000  Level Montreal Center
11:21PM 59.5667 -70.3833 108° East 580 667 33,000  Level Montreal Center
11:22PM 59.5333 -70.0667 102° East 590 679 33,000  Level Montreal Center
11:23PM 59.4833 -69.7333 106° East 580 667 33,000  Level Montreal Center
11:24PM 59.4500 -69.4500 103° East 580 667 33,000  Level Montreal Center
11:25PM 59.4167 -69.1167 101° East 580 667 33,000  Level Montreal Center
11:26PM 59.3667 -68.8000 107° East 590 679 33,000  Level Montreal Center
11:27PM 59.3333 -68.5000 102° East 590 679 33,000  Level Montreal Center
11:28PM 59.3000 -68.1833 102° East 600 690 33,000  Level Montreal Center
11:29PM 59.2667 -67.8667 102° East 600 690 33,000  Level Montreal Center
11:30PM 59.2167 -67.5500 107° East 600 690 33,000  Level Montreal Center
11:31PM 59.1833 -67.2167 101° East 600 690 33,000  Level Montreal Center
11:32PM 59.1333 -66.9667 111° Southeast 610 702 33,000 -240 Level Gander Center
11:33PM 59.0833 -66.5833 104° East 600 690 32,600 -720 Descending Montreal Center
11:34PM 59.0333 -66.2667 107° East 590 679 31,700 -900 Descending Montreal Center
11:35PM 59.0000 -66.0333 105° East 580 667 30,800 -840 Descending Gander Center
11:36PM 58.9500 -65.7000 106° East 580 667 30,000 -420 Descending Gander Center
11:37PM 58.9000 -65.4167 109° East 580 667 30,000  Level Gander Center
11:38PM 58.8667 -65.0667 100° East 580 667 30,000  Level Montreal Center
11:39PM 58.8167 -64.7833 109° East 580 667 30,000  Level Montreal Center
11:40PM 58.7667 -64.4833 108° East 590 679 30,000  Level Montreal Center
11:41PM 58.7167 -64.1667 107° East 590 679 30,000  Level Montreal Center
11:42PM 58.6833 -63.8833 103° East 590 679 30,000  Level Montreal Center
11:43PM 58.6333 -63.5833 108° East 600 690 30,000  Level Montreal Center
11:44PM 58.5667 -63.2667 112° Southeast 590 679 30,000  Level Montreal Center
11:45PM 58.5167 -62.9667 108° East 600 690 30,000  Level Montreal Center
11:46PM 58.4667 -62.6833 109° East 600 690 30,000  Level Gander Center
11:47PM 58.4333 -62.4000 103° East 600 690 30,000  Level Gander Center
11:48PM 58.3833 -62.0833 107° East 600 690 30,000  Level Gander Center
11:49PM 58.3333 -61.7500 106° East 610 702 30,000  Level Gander Center
11:50PM 58.2833 -61.4333 107° East 610 702 30,000  Level Gander Center
11:51PM 58.2333 -61.1500 108° East 620 713 30,000  Level Gander Center
11:52PM 58.1833 -60.8333 107° East 620 713 30,000  Level Gander Center
11:53PM 58.1333 -60.5167 107° East 620 713 30,000  Level Gander Center
11:54PM 58.0833 -60.2167 107° East 620 713 30,000  Level Gander Center
11:55PM 58.0333 -59.9000 106° East 610 702 30,000  Level Gander Center
11:56PM 58.0167 -59.5833 96° East 610 702 30,000  Level Gander Center
11:57PM 57.9833 -59.2667 101° East 610 702 30,000  Level Gander Center
11:58PM 57.9667 -58.9500 96° East 600 690 30,000  Level Gander Center
11:59PM 57.9500 -58.6667 96° East 600 690 30,000  Level Gander Center
12:00AM 57.9167 -58.3333 101° East 600 690 30,000  Level Gander Center
12:01AM 57.9000 -58.0167 96° East 600 690 30,000  Level Gander Center
12:02AM 57.8667 -57.7000 101° East 610 702 30,000  Level Gander Center
12:03AM 57.8500 -57.4000 96° East 600 690 30,000  Level Gander Center
12:04AM 57.8167 -57.0833 101° East 610 702 30,000  Level Gander Center
12:05AM 57.8000 -56.7833 96° East 610 702 30,000  Level Gander Center
12:06AM 57.7667 -56.4667 101° East 610 702 30,000  Level Gander Center
12:07AM 57.7333 -56.1500 101° East 610 702 30,000  Level Gander Center
12:08AM 57.7000 -55.8500 102° East 620 713 30,000  Level Gander Center
12:09AM 57.6833 -55.5167 95° East 610 702 30,000  Level Gander Center
12:10AM 57.6500 -55.2000 101° East 610 702 30,000  Level Gander Center
12:11AM 57.6167 -54.9000 102° East 610 702 30,000  Level Gander Center
12:12AM 57.5833 -54.5833 101° East 610 702 30,000  Level Gander Center
12:14AM 57.5328 -54.1785 101° East  Level FlightAware Approximate
12:21AM 57.3061 -52.2470 101° East  Level FlightAware Approximate
12:22AM 57.2713 -51.9730 103° East  Level FlightAware Approximate
12:23AM 57.2358 -51.6997 103° East  Level FlightAware Approximate
12:24AM 57.1997 -51.4269 104° East  Level FlightAware Approximate
12:25AM 57.1630 -51.1546 104° East  Level FlightAware Approximate
12:26AM 57.1257 -50.8829 104° East  Level FlightAware Approximate
12:26AM 57.0667 -50.4167 96° East 590 679 30,000  Level Gander Center
12:27AM 57.0879 -50.6117 104° East  Level FlightAware Approximate
12:27AM 57.0333 -50.1500 103° East 600 690 30,000  Level Gander Center
12:28AM 57.0494 -50.3410 105° East  Level FlightAware Approximate
12:28AM 57.0000 -49.8500 101° East 600 690 30,000  Level Gander Center
12:29AM 57.0104 -50.0710 105° East  Level FlightAware Approximate
12:29AM 56.9667 -49.5500 101° East 600 690 30,000  Level Gander Center
12:29AM 56.9667 -49.3667 90° East 600 690 30,000  Level Gander Center
12:30AM 56.9877 -49.7956 96° East  Level FlightAware Approximate
12:30AM 56.9500 -49.0667 96° East 600 690 30,000  Level Gander Center
12:31AM 56.9704 -49.5183 96° East  Level FlightAware Approximate
12:31AM 56.9333 -48.7500 95° East 600 690 30,000  Level Gander Center
12:32AM 56.9000 -48.4667 102° East 600 690 30,000  Level Gander Center
12:33AM 56.8833 -48.1500 95° East 590 679 30,000  Level Gander Center
12:34AM 56.8500 -47.8500 101° East 600 690 30,000  Level Gander Center
12:35AM 56.8333 -47.5500 96° East 600 690 30,000  Level Gander Center
12:36AM 56.8000 -47.2500 101° East 590 679 30,000  Level Gander Center
12:37AM 56.8000 -46.9833 90° East 590 679 30,000  Level Gander Center
12:38AM 56.7667 -46.6833 101° East 580 667 30,000  Level Gander Center
12:39AM 56.7500 -46.3833 96° East 580 667 30,000  Level Gander Center
12:40AM 56.7167 -46.1167 103° East 580 667 30,000  Level Gander Center
12:41AM 56.6833 -45.8167 101° East 580 667 30,000  Level Gander Center
12:42AM 56.6500 -45.5167 101° East 580 667 30,000  Level Gander Center
12:43AM 56.6333 -45.2500 96° East 580 667 30,000  Level Gander Center
12:44AM 56.6000 -44.9500 101° East 580 667 30,000  Level Gander Center
12:45AM 56.5833 -44.6500 96° East 580 667 30,000  Level Gander Center
12:46AM 56.5500 -44.4000 103° East 580 667 30,000  Level Gander Center
12:47AM 56.5167 -44.1000 101° East 580 667 30,000  Level Gander Center
12:48AM 56.4833 -43.8000 101° East 580 667 30,000  Level Gander Center
12:49AM 56.4500 -43.5333 103° East 580 667 30,000  Level Gander Center
12:50AM 56.4167 -43.2500 102° East 580 667 30,000  Level Gander Center
12:51AM 56.3833 -42.9500 101° East 580 667 30,000  Level Gander Center
12:52AM 56.3500 -42.6833 103° East 580 667 30,000  Level Gander Center
12:53AM 56.3167 -42.4000 102° East 580 667 30,000  Level Gander Center
12:54AM 56.2833 -42.1000 101° East 580 667 30,000  Level Gander Center
12:55AM 56.2500 -41.8333 103° East 580 667 30,000  Level Gander Center
12:56AM 56.2167 -41.5500 102° East 580 667 30,000  Level Gander Center
12:57AM 56.1833 -41.2667 102° East 590 679 30,000  Level Gander Center
12:59AM 56.1351 -40.9236 104° East  Level FlightAware Approximate
01:06AM 56.0293 -39.0567 86° East  Level FlightAware Approximate
01:07AM 56.0364 -38.7857 87° East  Level FlightAware Approximate
01:08AM 56.0429 -38.5146 87° East  Level FlightAware Approximate
01:09AM 56.0488 -38.2434 88° East  Level FlightAware Approximate
01:10AM 56.0541 -37.9722 88° East  Level FlightAware Approximate
01:11AM 56.0588 -37.7008 88° East  Level FlightAware Approximate
01:12AM 56.0629 -37.4295 88° East  Level FlightAware Approximate
01:13AM 56.0664 -37.1580 89° East  Level FlightAware Approximate
01:14AM 56.0712 -36.8866 88° East  Level FlightAware Approximate
01:15AM 56.0757 -36.6151 88° East  Level FlightAware Approximate
01:16AM 56.0796 -36.3436 88° East  Level FlightAware Approximate
01:17AM 56.0828 -36.0720 89° East  Level FlightAware Approximate
01:18AM 56.0855 -35.8004 89° East  Level FlightAware Approximate
01:19AM 56.0876 -35.5288 89° East  Level FlightAware Approximate
01:20AM 56.0890 -35.2571 89° East  Level FlightAware Approximate
01:21AM 56.0899 -34.9854 90° East  Level FlightAware Approximate
01:22AM 56.0902 -34.7137 90° East  Level FlightAware Approximate
01:23AM 56.0899 -34.4420 90° East  Level FlightAware Approximate
01:24AM 56.0890 -34.1703 90° East  Level FlightAware Approximate
01:25AM 56.0875 -33.8986 90° East  Level FlightAware Approximate
01:26AM 56.0854 -33.6270 91° East  Level FlightAware Approximate
01:27AM 56.0827 -33.3554 91° East  Level FlightAware Approximate
01:28AM 56.0794 -33.0838 91° East  Level FlightAware Approximate
01:29AM 56.0755 -32.8123 91° East  Level FlightAware Approximate
01:30AM 56.0710 -32.5408 92° East  Level FlightAware Approximate
01:31AM 56.0659 -32.2694 92° East  Level FlightAware Approximate
01:32AM 56.0602 -31.9981 92° East  Level FlightAware Approximate
01:33AM 56.0540 -31.7269 92° East  Level FlightAware Approximate
01:34AM 56.0471 -31.4557 92° East  Level FlightAware Approximate
01:35AM 56.0396 -31.1847 93° East  Level FlightAware Approximate
01:36AM 56.0316 -30.9137 93° East  Level FlightAware Approximate
01:37AM 56.0229 -30.6429 93° East  Level FlightAware Approximate
01:38AM 56.0137 -30.3722 93° East  Level FlightAware Approximate
01:39AM 56.0038 -30.1017 94° East  Level FlightAware Approximate
01:40AM 56.0067 -29.8312 86° East  Level FlightAware Approximate
01:41AM 56.0170 -29.5607 86° East  Level FlightAware Approximate
01:42AM 56.0267 -29.2901 86° East  Level FlightAware Approximate
01:43AM 56.0359 -29.0193 86° East  Level FlightAware Approximate
01:44AM 56.0444 -28.7483 87° East  Level FlightAware Approximate
01:45AM 56.0523 -28.4773 87° East  Level FlightAware Approximate
01:46AM 56.0596 -28.2062 87° East  Level FlightAware Approximate
01:47AM 56.0664 -27.9349 87° East  Level FlightAware Approximate
01:48AM 56.0725 -27.6636 88° East  Level FlightAware Approximate
01:49AM 56.0781 -27.3922 88° East  Level FlightAware Approximate
01:50AM 56.0830 -27.1207 88° East  Level FlightAware Approximate
01:51AM 56.0874 -26.8491 88° East  Level FlightAware Approximate
01:52AM 56.0911 -26.5775 88° East  Level FlightAware Approximate
01:53AM 56.0943 -26.3059 89° East  Level FlightAware Approximate
01:54AM 56.0969 -26.0342 89° East  Level FlightAware Approximate
01:55AM 56.0988 -25.7624 89° East  Level FlightAware Approximate
01:56AM 56.1002 -25.4907 89° East  Level FlightAware Approximate
01:57AM 56.1010 -25.2189 90° East  Level FlightAware Approximate
01:58AM 56.1012 -24.9471 90° East  Level FlightAware Approximate
01:59AM 56.1008 -24.6754 90° East  Level FlightAware Approximate
02:00AM 56.0998 -24.4036 90° East  Level FlightAware Approximate
02:01AM 56.0981 -24.1318 90° East  Level FlightAware Approximate
02:02AM 56.0960 -23.8601 91° East  Level FlightAware Approximate
02:03AM 56.0932 -23.5884 91° East  Level FlightAware Approximate
02:04AM 56.0897 -23.3168 91° East  Level FlightAware Approximate
02:05AM 56.0858 -23.0452 91° East  Level FlightAware Approximate
02:06AM 56.0812 -22.7737 92° East  Level FlightAware Approximate
02:07AM 56.0760 -22.5022 92° East  Level FlightAware Approximate
02:08AM 56.0702 -22.2308 92° East  Level FlightAware Approximate
02:09AM 56.0638 -21.9595 92° East  Level FlightAware Approximate
02:10AM 56.0569 -21.6883 93° East  Level FlightAware Approximate
02:11AM 56.0493 -21.4172 93° East  Level FlightAware Approximate
02:12AM 56.0411 -21.1462 93° East  Level FlightAware Approximate
02:13AM 56.0324 -20.8754 93° East  Level FlightAware Approximate
02:14AM 56.0230 -20.6046 93° East  Level FlightAware Approximate
02:15AM 56.0131 -20.3340 94° East  Level FlightAware Approximate
02:16AM 56.0026 -20.0635 94° East  Level FlightAware Approximate
02:17AM 55.9851 -19.7944 97° East  Level FlightAware Approximate
02:18AM 55.9652 -19.5258 97° East  Level FlightAware Approximate
02:19AM 55.9447 -19.2576 98° East  Level FlightAware Approximate
02:20AM 55.9236 -18.9896 98° East  Level FlightAware Approximate
02:21AM 55.9020 -18.7219 98° East  Level FlightAware Approximate
02:22AM 55.8797 -18.4545 98° East  Level FlightAware Approximate
02:23AM 55.8569 -18.1875 99° East  Level FlightAware Approximate
02:24AM 55.8335 -17.9207 99° East  Level FlightAware Approximate
02:25AM 55.8095 -17.6543 99° East  Level FlightAware Approximate
02:26AM 55.7850 -17.3882 99° East  Level FlightAware Approximate
02:27AM 55.7598 -17.1225 99° East  Level FlightAware Approximate
02:28AM 55.7341 -16.8570 100° East  Level FlightAware Approximate
02:29AM 55.7079 -16.5920 100° East  Level FlightAware Approximate
02:30AM 55.6809 -16.3273 101° East  Level FlightAware Approximate
02:31AM 55.6526 -16.0633 101° East  Level FlightAware Approximate
02:32AM 55.6238 -15.7996 101° East  Level FlightAware Approximate
02:33AM 55.5944 -15.5364 101° East  Level FlightAware Approximate
02:34AM 55.5644 -15.2735 101° East  Level FlightAware Approximate
02:35AM 55.5339 -15.0111 102° East  Level FlightAware Approximate
02:36AM 55.5028 -14.7490 102° East  Level FlightAware Approximate
02:37AM 55.4712 -14.4874 102° East  Level FlightAware Approximate
02:38AM 55.4389 -14.2262 102° East  Level FlightAware Approximate
02:39AM 55.4062 -13.9654 102° East  Level FlightAware Approximate
02:40AM 55.3729 -13.7050 103° East  Level FlightAware Approximate
02:41AM 55.3390 -13.4451 103° East  Level FlightAware Approximate
02:42AM 55.3046 -13.1857 103° East  Level FlightAware Approximate
02:43AM 55.2696 -12.9267 103° East  Level FlightAware Approximate
02:44AM 55.2348 -12.6679 103° East  Level FlightAware Approximate
02:44AM 55.6230 -12.0010 103° East 542 624 35,000  Level FlightAware
02:44AM 55.5980 -11.8240 104° East 543 625 35,000  Level FlightAware
02:45AM 55.2004 -12.4091 103° East  Level FlightAware Approximate
02:45AM 55.5750 -11.6600 104° East 543 625 35,000  Level FlightAware
02:46AM 55.5470 -11.4650 104° East 543 625 35,000  Level FlightAware
02:46AM 55.5210 -11.2920 105° East 541 623 35,000  Level FlightAware
02:47AM 55.5000 -11.1460 104° East 542 624 35,000  Level FlightAware
02:48AM 55.4710 -10.9500 105° East 543 625 35,000  Level FlightAware
02:48AM 55.4490 -10.8020 105° East 543 625 35,000  Level FlightAware
02:49AM 55.4200 -10.6100 105° East 544 626 35,000  Level FlightAware
02:50AM 55.3940 -10.4380 105° East 547 629 35,000  Level FlightAware
02:50AM 55.3640 -10.2460 105° East 546 628 35,000  Level FlightAware
02:51AM 55.3320 -10.0750 108° East 547 629 35,000  Level FlightAware
02:52AM 55.3000 -9.9080 109° East 550 633 35,000  Level FlightAware
02:52AM 55.2670 -9.7370 109° East 552 635 35,000  Level FlightAware
02:53AM 55.2350 -9.5690 108° East 555 639 35,000  Level FlightAware
02:54AM 55.2010 -9.3960 109° East 559 643 35,000  Level FlightAware
02:55AM 55.1650 -9.2070 108° East 560 644 35,000  Level FlightAware
02:55AM 55.1320 -9.0380 109° East 560 644 35,000  Level FlightAware
02:56AM 55.0924 -8.8428 109° East 504 580 35,000  Level FlightAware UK
02:56AM 55.0930 -8.8430 109° East 555 639 35,000  Level FlightAware
02:57AM 55.0560 -8.6560 109° East 552 635 35,000  Level FlightAware
02:57AM 55.0340 -8.5480 110° East 548 631 35,000  Level FlightAware
02:58AM 54.9960 -8.3630 110° East 545 627 35,000 -180 Level FlightAware
02:58AM 54.9909 -8.3400 110° East 504 580 34,900  Descending FlightAware UK
02:58AM 54.9655 -8.2160 110° East 502 578 35,000 120 Climbing FlightAware UK
02:59AM 54.9570 -8.1700 110° East 541 623 35,000  Level FlightAware
02:59AM 54.9280 -8.0310 110° East 540 621 35,000  Level FlightAware
03:00AM 54.8970 -7.8800 110° East 541 623 35,000 -180 Level FlightAware
03:00AM 54.8891 -7.8479 110° East 496 571 34,900  Descending FlightAware UK
03:00AM 54.8634 -7.7251 110° East 492 566 35,000 120 Climbing FlightAware UK
03:01AM 54.8600 -7.7060 110° East 541 623 35,000  Level FlightAware
03:01AM 54.8290 -7.5600 110° East 541 623 35,000  Level FlightAware
03:02AM 54.7890 -7.3720 110° East 541 623 35,000  Level FlightAware
03:02AM 54.7588 -7.2343 110° East 492 566 35,000  Level FlightAware UK
03:03AM 54.7540 -7.2100 110° East 544 626 35,000  Level FlightAware
03:03AM 54.7150 -7.0300 110° East 546 628 35,000 -120 Level FlightAware
03:04AM 54.6793 -6.8676 110° East 490 564 34,900  Descending FlightAware UK
03:04AM 54.6780 -6.8600 110° East 548 631 35,000 120 Climbing FlightAware
03:05AM 54.6410 -6.6950 111° Southeast 547 629 35,000  Level FlightAware
03:05AM 54.6010 -6.5150 111° Southeast 544 626 35,000  Level FlightAware
03:06AM 54.5705 -6.3798 111° Southeast 498 573 35,000  Level FlightAware UK
03:06AM 54.5690 -6.3700 111° Southeast 542 624 35,000  Level FlightAware
03:07AM 54.5340 -6.2160 111° Southeast 543 625 35,000  Level FlightAware
03:07AM 54.4960 -6.0510 112° Southeast 541 623 35,000 -120 Level FlightAware
03:08AM 54.4610 -5.8976 112° Southeast 494 568 34,900  Descending FlightAware UK
03:08AM 54.4590 -5.8870 112° Southeast 543 625 35,000 120 Climbing FlightAware
03:09AM 54.4210 -5.7260 112° Southeast 543 625 35,000  Level FlightAware
03:09AM 54.3800 -5.5470 112° Southeast 541 623 35,000  Level FlightAware
03:09AM 54.3771 -5.5363 112° Southeast 498 573 35,000 -240 Level FlightAware UK
03:10AM 54.3491 -5.4166 112° Southeast 506 582 34,900  Descending FlightAware UK
03:10AM 54.3370 -5.3670 112° Southeast 540 621 35,000 60 Climbing FlightAware
03:11AM 54.3080 -5.2420 112° Southeast 535 616 35,000  Level FlightAware
03:11AM 54.2670 -5.0710 112° Southeast 533 613 35,000  Level FlightAware
03:11AM 54.2648 -5.0620 112° Southeast 502 578 35,000  Level FlightAware UK
03:12AM 54.2311 -4.9215 112° Southeast 500 575 35,000  Level FlightAware UK
03:12AM 54.2330 -4.9300 112° Southeast 531 611 35,000  Level FlightAware
03:13AM 54.1900 -4.7530 112° Southeast 533 613 35,000  Level FlightAware
03:13AM 54.1530 -4.6000 112° Southeast 532 612 35,000  Level FlightAware
03:14AM 54.1177 -4.4564 112° Southeast 494 568 35,000  Level FlightAware UK
03:14AM 54.1130 -4.4370 112° Southeast 533 613 35,000  Level FlightAware
03:15AM 54.0740 -4.2780 113° Southeast 537 618 35,000  Level FlightAware
03:16AM 54.0340 -4.1200 113° Southeast 539 620 35,000  Level FlightAware
03:16AM 53.9958 -3.9668 113° Southeast 498 573 35,000  Level FlightAware UK
03:16AM 53.9920 -3.9500 113° Southeast 538 619 35,000  Level FlightAware
03:17AM 53.9490 -3.7720 112° Southeast 540 621 35,000  Level FlightAware
03:18AM 53.9148 -3.6112 112° Southeast 506 582 35,000  Level FlightAware UK
03:18AM 53.9170 -3.6180 112° Southeast 541 623 35,000  Level FlightAware
03:18AM 53.8881 -3.4663 112° Southeast 506 582 35,000  Level FlightAware UK
03:18AM 53.8860 -3.4530 112° Southeast 535 616 35,000  Level FlightAware
03:19AM 53.8622 -3.3227 112° Southeast 492 566 35,000  Level FlightAware UK
03:19AM 53.8540 -3.2770 112° Southeast 530 610 35,000  Level FlightAware
03:20AM 53.8270 -3.1326 112° Southeast 490 564 35,000  Level FlightAware UK
03:20AM 53.8240 -3.1160 112° Southeast 524 603 35,000  Level FlightAware
03:20AM 53.7940 -2.9540 107° East 520 598 35,000 -120 Level FlightAware
03:21AM 53.7713 -2.8292 107° East 484 557 34,900  Descending FlightAware UK
03:21AM 53.7640 -2.7890 107° East 519 597 35,000 60 Climbing FlightAware
03:22AM 53.7350 -2.6370 108° East 515 593 35,000  Level FlightAware
03:22AM 53.7110 -2.5110 108° East 514 592 35,000  Level FlightAware
03:23AM 53.6725 -2.3095 108° East 512 589 35,000  Level FlightAware ADS-B
03:24AM 53.6467 -2.1763 108° East 511 588 35,000  Level FlightAware ADS-B
03:24AM 53.6239 -2.0586 108° East 511 588 35,000  Level FlightAware ADS-B
03:25AM 53.5896 -1.8844 108° East 515 593 35,000  Level FlightAware ADS-B
03:26AM 53.5661 -1.7653 108° East 517 595 35,000  Level FlightAware ADS-B
03:26AM 53.5367 -1.6174 108° East 516 594 35,000 -120 Level FlightAware ADS-B
03:27AM 53.5052 -1.4602 108° East 476 548 34,900  Descending FlightAware UK
03:27AM 53.4970 -1.4180 108° East 512 589 35,000 180 Climbing FlightAware
03:27AM 53.4838 -1.3537 109° East 516 594 35,000  Level FlightAware ADS-B
03:28AM 53.4604 -1.2385 109° East 513 590 35,000  Level FlightAware ADS-B
03:29AM 53.4347 -1.1126 109° East 515 593 35,000  Level FlightAware ADS-B
03:29AM 53.4010 -0.9490 109° East 517 595 35,000  Level FlightAware
03:30AM 53.3662 -0.7817 109° East 476 548 35,000  Level FlightAware UK
03:30AM 53.3660 -0.7800 109° East 519 597 35,000  Level FlightAware
03:30AM 53.3477 -0.6920 109° East 521 600 35,000  Level FlightAware ADS-B
03:31AM 53.3182 -0.5529 109° East 480 552 35,000  Level FlightAware UK
03:31AM 53.3049 -0.4886 109° East 524 603 35,000  Level FlightAware ADS-B
03:32AM 53.2659 -0.3046 109° East 524 603 35,000  Level FlightAware ADS-B
03:33AM 53.2408 -0.1873 110° East 523 602 35,000  Level FlightAware ADS-B
03:33AM 53.2161 -0.0722 110° East 524 603 35,000  Level FlightAware ADS-B
03:34AM 53.1902 0.0477 110° East 523 602 35,000  Level FlightAware ADS-B
03:34AM 53.1652 0.1628 110° East 522 601 35,000  Level FlightAware ADS-B
03:35AM 53.1334 0.3077 110° East 524 603 35,000  Level FlightAware ADS-B
03:35AM 53.1080 0.4230 110° East 525 604 35,000 -120 Level FlightAware ADS-B
03:36AM 53.0768 0.5632 110° East 478 550 34,900  Descending FlightAware UK
03:36AM 53.0573 0.6513 110° East 526 605 35,000 60 Climbing FlightAware ADS-B
03:37AM 53.0221 0.8083 110° East 525 604 35,000  Level FlightAware ADS-B
03:38AM 52.9959 0.9254 110° East 526 605 35,000  Level FlightAware ADS-B
03:38AM 52.9764 1.0340 107° East 529 609 35,000  Level FlightAware ADS-B
03:39AM 52.9599 1.1632 102° East 530 610 35,000  Level FlightAware ADS-B
03:39AM 52.9453 1.2880 101° East 521 600 35,000  Level FlightAware ADS-B
03:40AM 52.9310 1.4110 101° East 527 606 35,000  Level FlightAware
03:40AM 52.9154 1.5427 101° East 528 608 35,000  Level FlightAware ADS-B
03:41AM 52.9005 1.6669 101° East 526 605 35,000  Level FlightAware ADS-B
03:41AM 52.8806 1.8312 101° East 524 603 35,000  Level FlightAware ADS-B
03:42AM 52.8641 1.9652 101° East 492 566 35,000  Level FlightAware UK
03:42AM 52.8520 2.0660 101° East 521 600 35,000  Level FlightAware
03:43AM 52.8449 2.1213 102° East 522 601 35,000  Level FlightAware ADS-B
03:44AM 52.8146 2.3628 102° East 492 566 35,000  Level FlightAware UK
03:44AM 52.8110 2.3890 102° East 520 598 35,000  Level FlightAware
03:44AM 52.7910 2.5440 102° East 519 597 35,000  Level FlightAware
03:45AM 52.7710 2.7010 102° East 519 597 35,000  Level FlightAware
03:46AM 52.7480 2.8650 103° East 518 596 35,000  Level FlightAware
03:46AM 52.7100 3.0150 103° East 523 602 35,000  Level FlightAware
03:47AM 52.7067 3.0260 103° East 490 564 35,000  Level FlightAware UK
03:47AM 52.6728 3.1314 103° East 490 564 35,000  Level FlightAware UK
03:47AM 52.6640 3.1590 103° East 523 602 35,000  Level FlightAware
03:48AM 52.6150 3.3090 118° Southeast 523 602 35,000  Level FlightAware
03:49AM 52.5710 3.4450 118° Southeast 521 600 35,000  Level FlightAware
03:49AM 52.5637 3.4679 118° Southeast 492 566 35,000  Level FlightAware UK
03:49AM 52.5299 3.5724 118° Southeast 492 566 35,000  Level FlightAware UK
03:49AM 52.5200 3.6000 118° Southeast 521 600 35,000  Level FlightAware
03:50AM 52.4700 3.7530 118° Southeast 521 600 35,000  Level FlightAware
03:51AM 52.4180 3.9110 118° Southeast 521 600 35,000  Level FlightAware
03:51AM 52.3787 4.0291 118° Southeast 494 568 35,000  Level FlightAware UK
03:51AM 52.3730 4.0460 118° Southeast 520 598 35,000  Level FlightAware
03:52AM 52.3350 4.1580 119° Southeast 520 598 35,000  Level FlightAware
03:53AM 52.2840 4.3100 119° Southeast 518 596 35,000  Level FlightAware
03:53AM 52.2400 4.4402 119° Southeast 490 564 35,000  Level FlightAware UK
03:53AM 52.2390 4.4420 119° Southeast 518 596 35,000  Level FlightAware
03:54AM 52.1950 4.5720 119° Southeast 518 596 35,000  Level FlightAware
03:55AM 52.1450 4.7180 119° Southeast 518 596 35,000  Level FlightAware
03:55AM 52.0960 4.8600 119° Southeast 519 597 35,000  Level FlightAware
03:56AM 52.0500 4.9930 119° Southeast 518 596 35,000  Level FlightAware
03:57AM 51.9970 5.1440 120° Southeast 518 596 35,000  Level FlightAware
03:57AM 51.9500 5.2780 120° Southeast 515 593 35,000  Level FlightAware
03:58AM 51.8960 5.4310 120° Southeast 513 590 35,000 -120 Level FlightAware
03:59AM 51.8511 5.5529 120° Southeast 490 564 34,900  Descending FlightAware UK
03:59AM 51.8540 5.5510 120° Southeast 512 589 35,000 180 Climbing FlightAware
03:59AM 51.8178 5.6548 120° Southeast 492 566 35,000  Level FlightAware UK
03:59AM 51.8110 5.6720 120° Southeast 512 589 35,000  Level FlightAware
04:00AM 51.7840 5.7480 120° Southeast 512 589 35,000 -120 Level FlightAware
04:01AM 51.7250 5.9110 120° Southeast 507 583 34,900 -540 Descending FlightAware
04:01AM 51.6880 6.0140 120° Southeast 499 574 34,300 -1,260 Descending FlightAware
04:02AM 51.6400 6.1470 120° Southeast 489 563 33,400 -960 Descending FlightAware
04:03AM 51.5900 6.2840 120° Southeast 493 567 33,000 -300 Descending FlightAware
04:03AM 51.5400 6.4220 120° Southeast 502 578 33,000 -120 Level FlightAware
04:04AM 51.4920 6.5490 121° Southeast 506 582 32,900 -1,200 Descending FlightAware
04:05AM 51.4410 6.6870 121° Southeast 507 583 31,400 -2,100 Descending FlightAware
04:05AM 51.3920 6.8200 121° Southeast 493 567 30,000 -2,100 Descending FlightAware
04:06AM 51.3510 6.9300 121° Southeast 484 557 28,700 -2,160 Descending FlightAware
04:07AM 51.2980 7.0710 121° Southeast 474 545 27,100 -1,920 Descending FlightAware
04:07AM 51.2370 7.1720 134° Southeast 463 533 26,000 -900 Descending FlightAware
04:08AM 51.1720 7.2260 152° Southeast 457 526 26,000  Level FlightAware
04:09AM 51.0980 7.2900 151° Southeast 455 524 26,000  Level FlightAware
04:09AM 51.0340 7.3510 149° Southeast 453 521 26,000 -1,020 Level FlightAware
04:10AM 50.9360 7.4460 149° Southeast 457 526 24,500 -2,160 Descending FlightAware
04:11AM 50.8480 7.5320 148° Southeast 457 526 22,400 -2,580 Descending FlightAware
04:12AM 50.7630 7.6070 151° Southeast 454 522 20,500 -2,520 Descending FlightAware
04:12AM 50.6990 7.6510 156° South 452 520 19,100 -2,640 Descending FlightAware
04:13AM 50.5740 7.7330 157° South 451 519 16,300 -2,400 Descending FlightAware
04:14AM 50.5050 7.7790 157° South 440 506 15,100 -1,920 Descending FlightAware
04:14AM 50.4560 7.8130 156° South 437 503 14,300 -1,740 Descending FlightAware
04:15AM 50.4000 7.8690 147° Southeast 405 466 13,400 -1,380 Descending FlightAware
04:16AM 50.3350 7.9490 142° Southeast 378 435 12,500 -1,140 Descending FlightAware
04:16AM 50.2950 8.0340 126° Southeast 357 411 11,800 -1,080 Descending FlightAware
04:17AM 50.2820 8.1390 101° East 353 406 11,100 -1,020 Descending FlightAware
04:18AM 50.2660 8.2640 101° East 335 386 10,300 -900 Descending FlightAware
04:19AM 50.2560 8.3520 100° East 313 360 9,800 -720 Descending FlightAware
04:19AM 50.2530 8.3780 100° East 306 352 9,700 -780 Descending FlightAware
04:19AM 50.2460 8.4390 100° East 291 335 9,300 -600 Descending FlightAware
04:20AM 50.2400 8.4970 99° East 278 320 9,100 -960 Descending FlightAware
04:21AM 50.2370 8.5900 93° East 277 319 8,100 -1,140 Descending FlightAware
04:21AM 50.2380 8.6680 89° East 273 314 7,500 -900 Descending FlightAware
04:22AM 50.2390 8.7190 88° East 271 312 7,100 -600 Descending FlightAware
04:22AM 50.2390 8.7670 90° East 269 310 7,000 -660 Descending FlightAware
04:23AM 50.2400 8.8340 89° East 266 306 6,500 -900 Descending FlightAware
04:23AM 50.2400 8.9050 90° East 260 299 6,000 -780 Descending FlightAware
04:24AM 50.2400 8.9520 90° East 260 299 5,700 -720 Descending FlightAware
04:24AM 50.2380 9.0060 93° East 258 297 5,300 -900 Descending FlightAware
04:25AM 50.2170 9.0370 137° Southeast 242 278 4,900 -1,080 Descending FlightAware
04:25AM 50.2060 9.0400 170° South 241 277 4,800 -720 Descending FlightAware
04:25AM 50.1890 9.0320 197° South 244 281 4,600 -720 Descending FlightAware
04:25AM 50.1800 9.0210 218° Southwest 236 272 4,500 -900 Descending FlightAware
04:26AM 50.1560 8.9890 221° Southwest 229 264 4,000 -780 Descending FlightAware
04:26AM 50.1360 8.9640 219° Southwest 221 254 3,800 -300 Descending FlightAware
04:26AM 50.1260 8.9450 231° Southwest 219 252 3,800  Level FlightAware
04:27AM 50.1200 8.9230 247° West 216 249 3,800  Level FlightAware
04:27AM 50.1110 8.8860 249° West 216 249 3,800 -120 Level FlightAware
04:27AM 50.1020 8.8490 249° West 214 246 3,700 -720 Descending FlightAware
04:28AM 50.0930 8.8090 251° West 208 239 3,200 -1,140 Descending FlightAware
04:28AM 50.0840 8.7730 249° West 190 219 2,700 -1,200 Descending FlightAware
04:29AM 50.0800 8.7540 252° West 173 199 2,400 -960 Descending FlightAware
04:29AM 50.0720 8.7210 249° West 159 183 2,000 -840 Descending FlightAware
04:29AM 50.0670 8.6980 251° West 160 184 1,700 -900 Descending FlightAware
04:30AM 50.0530 8.6400 249° West 158 182 900 -900 Descending FlightAware
04:31AM 50.0460 8.6100 250° West 159 183 500 -900 Descending FlightAware
04:31AM 50.0380 8.5780 249° West 154 177 100 -420 Descending FlightAware
04:32AM 50.0320 8.5530 250° West 143 165 100  Level FlightAware
04:32AM 50.0330 8.5570 69° East 33 38 -1,200 Descending FlightAware
04:32AM 50.0320 8.5520 253° West 33 38  Level FlightAware
04:33AM 50.0340 8.5520 360° North 10 12  Level FlightAware
04:33AM 50.0340 8.5530 90° East 11 13  Level FlightAware
04:33AM 50.0350 8.5560 63° Northeast 18 21  Level FlightAware
04:35AM 50.0380 8.5660 65° Northeast 26 30  Level FlightAware
04:35AM 50.0390 8.5710 73° East 25 29  Level FlightAware
04:35AM 50.0400 8.5750 69° East 18 21  Level FlightAware
04:36AM 50.0400 8.5770 90° East 13 15  Level FlightAware
04:36AM 50.0410 8.5790 52° Northeast 17 20  Level FlightAware
04:37AM 50.0420 8.5820 63° Northeast 8 9  Level FlightAware
04:40AM 50.0167 8.5667 124° Southeast  Level FlightAware Approximate